createdAt,value
2023-04-15T00:01:34.486Z,5.60
2023-04-15T00:04:37.458Z,5.60
2023-04-15T00:07:40.279Z,5.50
2023-04-15T00:10:44.143Z,5.50
2023-04-15T00:13:46.234Z,5.30
2023-04-15T00:16:49.985Z,5.20
2023-04-15T00:19:51.664Z,5.10
2023-04-15T00:22:53.472Z,4.90
2023-04-15T00:25:55.606Z,4.90
2023-04-15T00:28:57.322Z,4.70
2023-04-15T00:31:58.874Z,4.60
2023-04-15T00:35:00.851Z,4.50
2023-04-15T00:38:02.436Z,4.40
2023-04-15T00:41:04.585Z,4.30
2023-04-15T00:44:07.044Z,4.30
2023-04-15T00:47:09.603Z,4.20
2023-04-15T00:50:12.812Z,4.20
2023-04-15T00:53:14.396Z,4.20
2023-04-15T00:56:16.040Z,4.20
2023-04-15T00:59:18.441Z,4.30
2023-04-15T01:02:20.674Z,4.30
2023-04-15T01:05:22.443Z,4.30
2023-04-15T01:08:28.488Z,4.30
2023-04-15T01:11:31.912Z,4.40
2023-04-15T01:14:33.982Z,4.40
2023-04-15T01:17:35.894Z,4.40
2023-04-15T01:20:37.597Z,4.40
2023-04-15T01:23:39.631Z,4.40
2023-04-15T01:26:42.313Z,4.40
2023-04-15T01:29:44.633Z,4.40
2023-04-15T01:32:46.537Z,4.30
2023-04-15T01:35:48.193Z,4.20
2023-04-15T01:38:50.552Z,4.20
2023-04-15T01:41:52.276Z,4.20
2023-04-15T01:44:53.956Z,4.20
2023-04-15T01:47:55.843Z,4.20
2023-04-15T01:50:58.396Z,4.20
2023-04-15T01:53:59.968Z,4.20
2023-04-15T01:57:02.111Z,4.20
2023-04-15T02:00:04.037Z,4.20
2023-04-15T02:03:06.497Z,4.20
2023-04-15T02:06:08.225Z,4.10
2023-04-15T02:09:10.557Z,4.20
2023-04-15T02:12:13.243Z,4.20
2023-04-15T02:15:15.392Z,4.20
2023-04-15T02:18:17.257Z,4.10
2023-04-15T02:21:18.970Z,4.10
2023-04-15T02:24:21.311Z,4.10
2023-04-15T02:27:23.024Z,3.90
2023-04-15T02:30:25.478Z,3.90
2023-04-15T02:33:27.117Z,3.70
2023-04-15T02:36:29.737Z,3.60
2023-04-15T02:39:31.282Z,3.50
2023-04-15T02:42:32.913Z,3.50
2023-04-15T02:45:34.758Z,3.50
2023-04-15T02:48:36.824Z,3.40
2023-04-15T02:51:38.783Z,3.30
2023-04-15T02:54:40.342Z,3.40
2023-04-15T02:57:41.999Z,3.40
2023-04-15T03:00:43.612Z,3.50
2023-04-15T03:03:45.498Z,3.50
2023-04-15T03:06:47.420Z,3.60
2023-04-15T03:09:48.970Z,3.60
2023-04-15T03:12:50.724Z,3.60
2023-04-15T03:15:52.359Z,3.50
2023-04-15T03:18:53.985Z,3.40
2023-04-15T03:21:55.551Z,3.40
2023-04-15T03:24:57.290Z,3.40
2023-04-15T03:28:00.162Z,3.30
2023-04-15T03:31:01.834Z,3.30
2023-04-15T03:34:03.431Z,3.30
2023-04-15T03:37:05.609Z,3.20
2023-04-15T03:40:08.007Z,3.20
2023-04-15T03:43:09.604Z,3.20
2023-04-15T03:46:11.248Z,3.20
2023-04-15T03:49:14.072Z,3.20
2023-04-15T03:52:15.841Z,3.20
2023-04-15T03:55:17.526Z,3.20
2023-04-15T03:58:19.112Z,3.10
2023-04-15T04:01:20.761Z,3.10
2023-04-15T04:04:22.438Z,3.10
2023-04-15T04:07:25.320Z,3.10
2023-04-15T04:10:27.071Z,3.10
2023-04-15T04:13:28.648Z,3.00
2023-04-15T04:16:30.524Z,2.90
2023-04-15T04:19:32.222Z,2.90
2023-04-15T04:22:39.077Z,2.90
2023-04-15T04:25:40.655Z,2.90
2023-04-15T04:28:42.289Z,2.90
2023-04-15T04:31:43.854Z,2.90
2023-04-15T04:34:45.486Z,2.90
2023-04-15T04:37:47.346Z,3.00
2023-04-15T04:40:49.008Z,3.00
2023-04-15T04:43:50.811Z,3.10
2023-04-15T04:46:52.490Z,3.20
2023-04-15T04:49:54.040Z,3.20
2023-04-15T04:52:55.810Z,3.20
2023-04-15T04:55:57.448Z,3.20
2023-04-15T04:58:59.153Z,3.30
2023-04-15T05:02:01.103Z,3.30
2023-04-15T05:05:02.939Z,3.30
2023-04-15T05:08:05.113Z,3.20
2023-04-15T05:11:07.259Z,3.10
2023-04-15T05:14:08.846Z,3.00
2023-04-15T05:17:11.476Z,2.80
2023-04-15T05:20:13.801Z,2.80
2023-04-15T05:23:15.853Z,2.70
2023-04-15T05:26:17.753Z,2.70
2023-04-15T05:29:19.394Z,2.70
2023-04-15T05:32:21.269Z,2.60
2023-04-15T05:35:22.951Z,2.70
2023-04-15T05:38:24.514Z,2.80
2023-04-15T05:41:26.299Z,2.90
2023-04-15T05:44:27.914Z,3.10
2023-04-15T05:47:29.488Z,3.20
2023-04-15T05:50:31.222Z,3.40
2023-04-15T05:53:32.873Z,3.50
2023-04-15T05:56:34.468Z,3.60
2023-04-15T05:59:36.153Z,3.70
2023-04-15T06:02:37.922Z,3.80
2023-04-15T06:05:40.576Z,3.90
2023-04-15T06:08:42.175Z,3.90
2023-04-15T06:11:43.809Z,4.00
2023-04-15T06:14:45.528Z,4.00
2023-04-15T06:17:47.137Z,4.10
2023-04-15T06:20:48.818Z,4.10
2023-04-15T06:23:50.590Z,4.20
2023-04-15T06:26:52.248Z,4.40
2023-04-15T06:29:53.814Z,4.60
2023-04-15T06:32:56.031Z,4.70
2023-04-15T06:35:57.757Z,4.90
2023-04-15T06:38:59.702Z,5.20
2023-04-15T06:42:01.590Z,5.40
2023-04-15T06:45:03.366Z,5.50
2023-04-15T06:48:05.788Z,5.70
2023-04-15T06:51:07.415Z,6.00
2023-04-15T06:54:09.072Z,6.20
2023-04-15T06:57:10.814Z,6.40
2023-04-15T07:00:12.871Z,6.60
2023-04-15T07:03:15.123Z,6.70
2023-04-15T07:06:17.000Z,6.70
2023-04-15T07:09:18.580Z,6.70
2023-04-15T07:12:20.704Z,6.90
2023-04-15T07:15:23.534Z,7.20
2023-04-15T07:18:25.519Z,7.50
2023-04-15T07:21:27.628Z,7.80
2023-04-15T07:24:29.256Z,8.10
2023-04-15T07:27:31.110Z,8.10
2023-04-15T07:30:33.140Z,8.20
2023-04-15T07:33:34.765Z,8.20
2023-04-15T07:36:36.871Z,8.40
2023-04-15T07:39:38.695Z,8.60
2023-04-15T07:42:41.475Z,8.80
2023-04-15T07:45:43.339Z,9.10
2023-04-15T07:48:45.191Z,9.20
2023-04-15T07:51:47.129Z,9.30
2023-04-15T07:54:48.720Z,9.60
2023-04-15T07:57:50.436Z,9.80
2023-04-15T08:00:52.163Z,10.10
2023-04-15T08:03:54.922Z,10.30
2023-04-15T08:06:56.628Z,10.50
2023-04-15T08:09:58.200Z,10.50
2023-04-15T08:12:59.930Z,10.60
2023-04-15T08:16:33.851Z,10.50
2023-04-15T08:19:35.682Z,10.40
2023-04-15T08:22:37.280Z,10.60
2023-04-15T08:25:38.852Z,10.80
2023-04-15T08:28:41.781Z,11.00
2023-04-15T08:31:43.550Z,11.10
2023-04-15T08:34:45.188Z,11.40
2023-04-15T08:37:46.791Z,11.80
2023-04-15T08:40:48.372Z,11.90
2023-04-15T08:43:56.779Z,11.90
2023-04-15T08:47:01.781Z,12.00
2023-04-15T08:50:04.741Z,12.00
2023-04-15T08:53:07.549Z,12.10
2023-04-15T08:56:10.572Z,12.20
2023-04-15T08:59:12.593Z,12.40
2023-04-15T09:02:14.364Z,12.60
2023-04-15T09:05:16.562Z,12.80
2023-04-15T09:08:18.705Z,12.80
2023-04-15T09:11:22.143Z,12.60
2023-04-15T09:14:23.790Z,12.60
2023-04-15T09:17:26.547Z,12.50
2023-04-15T09:20:28.240Z,12.60
2023-04-15T09:23:29.872Z,12.80
2023-04-15T09:26:33.839Z,12.90
2023-04-15T09:29:35.659Z,12.80
2023-04-15T09:32:57.877Z,13.10
2023-04-15T09:36:04.964Z,13.20
2023-04-15T09:39:07.005Z,13.40
2023-04-15T09:42:08.709Z,13.50
2023-04-15T09:45:13.123Z,13.60
2023-04-15T09:48:22.784Z,14.00
2023-04-15T09:51:36.567Z,14.00
2023-04-15T09:54:38.879Z,13.90
2023-04-15T09:57:49.792Z,14.00
2023-04-15T10:00:53.268Z,14.10
2023-04-15T10:03:58.069Z,14.30
2023-04-15T10:07:00.942Z,14.10
2023-04-15T10:10:04.352Z,14.00
2023-04-15T10:13:06.976Z,13.90
2023-04-15T10:16:16.806Z,14.10
2023-04-15T10:19:26.283Z,14.00
2023-04-15T10:22:28.763Z,14.10
2023-04-15T10:25:30.960Z,14.20
2023-04-15T10:28:32.715Z,14.00
2023-04-15T10:31:35.738Z,14.00
2023-04-15T10:34:38.363Z,14.00
2023-04-15T10:37:40.079Z,14.30
2023-04-15T10:40:41.979Z,14.40
2023-04-15T10:44:01.165Z,14.10
2023-04-15T10:47:10.534Z,14.00
2023-04-15T10:50:12.535Z,13.70
2023-04-15T10:53:28.410Z,13.70
2023-04-15T10:56:31.006Z,13.50
2023-04-15T10:59:36.329Z,13.30
2023-04-15T11:02:42.144Z,13.30
2023-04-15T11:05:51.798Z,13.30
2023-04-15T11:08:59.285Z,13.10
2023-04-15T11:12:10.463Z,13.10
2023-04-15T11:15:39.141Z,13.30
2023-04-15T11:18:40.821Z,13.50
2023-04-15T11:21:42.410Z,13.60
2023-04-15T11:24:51.049Z,13.80
2023-04-15T11:27:54.444Z,14.10
2023-04-15T11:30:56.851Z,14.30
2023-04-15T11:34:01.406Z,14.50
2023-04-15T11:37:06.576Z,14.50
2023-04-15T11:40:09.353Z,14.40
2023-04-15T11:43:18.470Z,14.10
2023-04-15T11:46:22.654Z,14.40
2023-04-15T11:49:31.328Z,14.60
2023-04-15T11:52:32.939Z,14.50
2023-04-15T11:55:45.041Z,14.80
2023-04-15T11:58:47.269Z,14.70
2023-04-15T12:01:49.927Z,14.80
2023-04-15T12:04:51.601Z,15.30
2023-04-15T12:08:00.726Z,15.20
2023-04-15T12:11:02.492Z,14.90
2023-04-15T12:14:16.808Z,14.90
2023-04-15T12:17:18.516Z,14.80
2023-04-15T12:20:26.416Z,14.80
2023-04-15T12:23:28.500Z,14.70
2023-04-15T12:26:48.311Z,14.60
2023-04-15T12:29:49.896Z,14.50
2023-04-15T12:32:52.270Z,14.00
2023-04-15T12:35:53.869Z,13.60
2023-04-15T12:38:55.922Z,13.30
2023-04-15T12:41:57.909Z,13.20
2023-04-15T12:44:59.458Z,13.20
2023-04-15T12:48:01.158Z,13.10
2023-04-15T12:51:05.121Z,13.10
2023-04-15T12:54:07.238Z,13.10
2023-04-15T12:57:08.985Z,13.00
2023-04-15T13:00:11.233Z,12.70
2023-04-15T13:03:13.110Z,12.50
2023-04-15T13:06:14.750Z,12.50
2023-04-15T13:09:16.442Z,12.60
2023-04-15T13:12:18.318Z,12.40
2023-04-15T13:15:22.291Z,12.30
2023-04-15T13:18:23.910Z,12.30
2023-04-15T13:21:25.572Z,12.30
2023-04-15T13:24:27.122Z,12.10
2023-04-15T13:27:28.780Z,12.10
2023-04-15T13:30:31.161Z,11.80
2023-04-15T13:33:32.777Z,11.60
2023-04-15T13:36:34.419Z,11.50
2023-04-15T13:39:36.315Z,11.30
2023-04-15T13:42:37.868Z,11.40
2023-04-15T13:45:39.550Z,11.30
2023-04-15T13:48:41.366Z,11.20
2023-04-15T13:51:43.365Z,11.20
2023-04-15T13:54:45.021Z,11.10
2023-04-15T13:57:47.654Z,11.10
2023-04-15T14:00:49.469Z,11.10
2023-04-15T14:03:51.321Z,11.00
2023-04-15T14:06:53.070Z,11.20
2023-04-15T14:09:55.455Z,11.30
2023-04-15T14:12:57.034Z,11.30
2023-04-15T14:15:58.712Z,11.50
2023-04-15T14:19:00.933Z,11.50
2023-04-15T14:22:03.347Z,11.50
2023-04-15T14:25:06.512Z,11.60
2023-04-15T14:28:08.061Z,11.40
2023-04-15T14:31:09.633Z,11.30
2023-04-15T14:34:11.587Z,11.20
2023-04-15T14:37:13.304Z,11.20
2023-04-15T14:40:15.452Z,11.10
2023-04-15T14:43:17.347Z,11.00
2023-04-15T14:46:19.159Z,11.00
2023-04-15T14:49:21.264Z,10.90
2023-04-15T14:52:23.139Z,11.00
2023-04-15T14:55:24.912Z,11.00
2023-04-15T14:58:26.605Z,10.90
2023-04-15T15:01:28.557Z,10.80
2023-04-15T15:04:30.512Z,10.70
2023-04-15T15:07:32.207Z,10.60
2023-04-15T15:10:48.298Z,10.50
2023-04-15T15:13:51.468Z,10.50
2023-04-15T15:16:53.143Z,10.40
2023-04-15T15:19:54.701Z,10.30
2023-04-15T15:22:56.686Z,10.20
2023-04-15T15:25:58.956Z,10.20
2023-04-15T15:29:00.703Z,10.10
2023-04-15T15:32:02.329Z,10.10
2023-04-15T15:35:04.119Z,10.20
2023-04-15T15:38:06.365Z,10.20
2023-04-15T15:41:08.036Z,10.20
2023-04-15T15:44:09.676Z,10.20
2023-04-15T15:47:11.738Z,10.20
2023-04-15T15:50:14.421Z,10.20
2023-04-15T15:53:20.578Z,10.20
2023-04-15T15:56:22.355Z,10.10
2023-04-15T15:59:25.424Z,10.00
2023-04-15T16:02:45.818Z,10.00
2023-04-15T16:05:48.909Z,10.00
2023-04-15T16:08:50.627Z,10.00
2023-04-15T16:11:52.248Z,9.90
2023-04-15T16:14:53.938Z,9.90
2023-04-15T16:17:55.574Z,9.80
2023-04-15T16:20:58.180Z,9.90
2023-04-15T16:23:59.783Z,9.90
2023-04-15T16:27:02.771Z,9.80
2023-04-15T16:30:04.898Z,9.80
2023-04-15T16:33:07.791Z,9.90
2023-04-15T16:36:09.538Z,9.90
2023-04-15T16:39:11.225Z,9.80
2023-04-15T16:42:12.878Z,9.80
2023-04-15T16:45:14.514Z,9.80
2023-04-15T16:48:16.362Z,9.80
2023-04-15T16:51:18.031Z,9.70
2023-04-15T16:54:19.625Z,9.60
2023-04-15T16:57:21.400Z,9.60
2023-04-15T17:00:23.022Z,9.60
2023-04-15T17:03:25.851Z,9.60
2023-04-15T17:06:27.779Z,9.50
2023-04-15T17:09:29.417Z,9.50
2023-04-15T17:12:31.741Z,9.40
2023-04-15T17:15:33.438Z,9.40
2023-04-15T17:18:35.314Z,9.30
2023-04-15T17:21:36.971Z,9.30
2023-04-15T17:24:38.589Z,9.30
2023-04-15T17:27:40.678Z,9.20
2023-04-15T17:30:42.264Z,9.20
2023-04-15T17:34:01.787Z,9.20
2023-04-15T17:37:06.235Z,9.20
2023-04-15T17:40:09.044Z,9.20
2023-04-15T17:43:10.692Z,9.20
2023-04-15T17:46:13.273Z,9.10
2023-04-15T17:49:15.005Z,9.10
2023-04-15T17:52:16.698Z,9.10
2023-04-15T17:55:18.380Z,9.10
2023-04-15T17:58:20.305Z,9.10
2023-04-15T18:01:22.284Z,9.10
2023-04-15T18:04:26.475Z,9.10
2023-04-15T18:07:28.551Z,9.10
2023-04-15T18:10:30.125Z,9.10
2023-04-15T18:13:31.728Z,9.10
2023-04-15T18:16:33.556Z,9.10
2023-04-15T18:19:35.216Z,9.10
2023-04-15T18:22:36.915Z,9.00
2023-04-15T18:25:38.664Z,9.00
2023-04-15T18:28:40.362Z,9.00
2023-04-15T18:31:42.060Z,9.00
2023-04-15T18:34:43.794Z,8.90
2023-04-15T18:37:45.403Z,8.80
2023-04-15T18:40:47.005Z,8.80
2023-04-15T18:43:48.927Z,8.80
2023-04-15T18:46:50.630Z,8.80
2023-04-15T18:49:52.229Z,8.70
2023-04-15T18:52:53.875Z,8.70
2023-04-15T18:55:56.331Z,8.80
2023-04-15T18:59:09.663Z,8.70
2023-04-15T19:02:20.014Z,8.70
2023-04-15T19:05:21.672Z,8.70
2023-04-15T19:08:23.332Z,8.70
2023-04-15T19:11:25.983Z,8.70
2023-04-15T19:14:27.745Z,8.70
2023-04-15T19:17:29.465Z,8.70
2023-04-15T19:20:31.285Z,8.70
2023-04-15T19:23:33.541Z,8.80
2023-04-15T19:26:36.748Z,8.70
2023-04-15T19:29:38.436Z,8.70
2023-04-15T19:32:40.127Z,8.80
2023-04-15T19:35:41.834Z,8.80
2023-04-15T19:38:43.918Z,8.80
2023-04-15T19:41:45.795Z,8.80
2023-04-15T19:44:47.521Z,8.80
2023-04-15T19:47:49.263Z,8.80
2023-04-15T19:50:51.252Z,8.80
2023-04-15T19:53:53.875Z,8.80
2023-04-15T19:56:55.662Z,8.80
2023-04-15T19:59:57.247Z,8.80
2023-04-15T20:03:00.879Z,8.80
2023-04-15T20:06:02.720Z,8.90
2023-04-15T20:09:04.871Z,8.90
2023-04-15T20:12:49.390Z,8.90
2023-04-15T20:15:28.733Z,8.90
2023-04-15T20:18:30.680Z,9.00
2023-04-15T20:21:32.314Z,9.00
2023-04-15T20:24:34.109Z,9.00
2023-04-15T20:27:35.712Z,9.00
2023-04-15T20:30:39.336Z,9.00
2023-04-15T20:33:40.907Z,9.00
2023-04-15T20:36:43.267Z,9.00
2023-04-15T20:39:44.928Z,9.00
2023-04-15T20:42:46.558Z,9.10
2023-04-15T20:45:50.145Z,9.00
2023-04-15T20:48:51.763Z,9.10
2023-04-15T20:51:53.340Z,9.00
2023-04-15T20:54:55.564Z,9.10
2023-04-15T20:57:59.156Z,9.10
2023-04-15T21:01:02.144Z,9.10
2023-04-15T21:04:03.995Z,9.10
2023-04-15T21:07:05.831Z,9.10
2023-04-15T21:10:07.711Z,9.10
2023-04-15T21:13:09.355Z,9.00
2023-04-15T21:16:10.983Z,9.00
2023-04-15T21:19:12.594Z,9.00
2023-04-15T21:22:14.400Z,9.00
2023-04-15T21:25:16.151Z,9.00
2023-04-15T21:28:17.754Z,9.00
2023-04-15T21:31:20.705Z,9.00
2023-04-15T21:34:22.325Z,9.00
2023-04-15T21:37:24.014Z,9.00
2023-04-15T21:40:25.732Z,8.90
2023-04-15T21:43:27.720Z,9.00
2023-04-15T21:46:32.784Z,8.90
2023-04-15T21:49:35.027Z,8.90
2023-04-15T21:52:36.593Z,9.00
2023-04-15T21:55:38.176Z,8.90
2023-04-15T21:58:39.833Z,8.90
2023-04-15T22:01:41.464Z,8.90
2023-04-15T22:04:43.158Z,8.90
2023-04-15T22:07:44.844Z,9.00
2023-04-15T22:10:46.488Z,9.00
2023-04-15T22:13:48.102Z,8.90
2023-04-15T22:16:49.662Z,8.90
2023-04-15T22:19:51.353Z,8.90
2023-04-15T22:22:54.284Z,8.90
2023-04-15T22:25:56.412Z,8.90
2023-04-15T22:28:58.010Z,8.90
2023-04-15T22:31:59.692Z,8.90
2023-04-15T22:35:01.722Z,8.90
2023-04-15T22:38:04.140Z,8.90
2023-04-15T22:41:06.011Z,8.90
2023-04-15T22:44:07.642Z,8.90
2023-04-15T22:47:09.197Z,9.00
2023-04-15T22:50:11.048Z,9.00
2023-04-15T22:53:12.745Z,9.00
2023-04-15T22:56:14.329Z,8.90
2023-04-15T22:59:15.979Z,9.00
2023-04-15T23:02:17.872Z,8.90
2023-04-15T23:05:19.813Z,9.00
2023-04-15T23:08:23.704Z,9.00
2023-04-15T23:11:25.425Z,9.00
2023-04-15T23:14:28.148Z,9.00
2023-04-15T23:17:29.776Z,9.00
2023-04-15T23:20:31.382Z,9.00
2023-04-15T23:23:32.987Z,9.00
2023-04-15T23:26:34.560Z,9.00
2023-04-15T23:29:36.319Z,9.00
2023-04-15T23:32:37.917Z,9.00
2023-04-15T23:35:39.591Z,9.00
2023-04-15T23:38:42.078Z,8.90
2023-04-15T23:41:43.706Z,8.90
2023-04-15T23:44:45.343Z,8.90
2023-04-15T23:47:46.978Z,8.90
2023-04-15T23:50:48.566Z,8.90
2023-04-15T23:53:52.221Z,8.80
2023-04-15T23:56:53.829Z,8.80
2023-04-15T23:59:55.600Z,8.80
